sensor_id;sensor_type;location;lat;lon;timestamp;P1;durP1;ratioP1;P2;durP2;ratioP2
76262;SDS011;65080;50.908;6.916;2022-12-07T00:02:25;26.83;;;15.50;;
76262;SDS011;65080;50.908;6.916;2022-12-07T00:04:53;23.50;;;15.63;;
76262;SDS011;65080;50.908;6.916;2022-12-07T00:07:22;25.07;;;16.27;;
76262;SDS011;65080;50.908;6.916;2022-12-07T00:09:53;24.60;;;16.80;;
76262;SDS011;65080;50.908;6.916;2022-12-07T00:12:21;27.10;;;16.97;;
76262;SDS011;65080;50.908;6.916;2022-12-07T00:14:51;29.40;;;16.53;;
76262;SDS011;65080;50.908;6.916;2022-12-07T00:17:19;23.60;;;17.30;;
76262;SDS011;65080;50.908;6.916;2022-12-07T00:19:47;29.23;;;18.80;;
76262;SDS011;65080;50.908;6.916;2022-12-07T00:22:15;29.70;;;18.47;;
76262;SDS011;65080;50.908;6.916;2022-12-07T00:24:44;27.57;;;17.40;;
76262;SDS011;65080;50.908;6.916;2022-12-07T00:27:12;25.53;;;16.67;;
76262;SDS011;65080;50.908;6.916;2022-12-07T00:29:40;25.70;;;16.73;;
76262;SDS011;65080;50.908;6.916;2022-12-07T00:32:09;28.83;;;18.07;;
76262;SDS011;65080;50.908;6.916;2022-12-07T00:34:38;24.10;;;16.97;;
76262;SDS011;65080;50.908;6.916;2022-12-07T00:37:06;26.47;;;18.37;;
76262;SDS011;65080;50.908;6.916;2022-12-07T00:39:34;27.27;;;17.77;;
76262;SDS011;65080;50.908;6.916;2022-12-07T00:42:02;28.07;;;18.57;;
76262;SDS011;65080;50.908;6.916;2022-12-07T00:44:30;28.40;;;18.73;;
76262;SDS011;65080;50.908;6.916;2022-12-07T00:46:59;23.30;;;18.23;;
76262;SDS011;65080;50.908;6.916;2022-12-07T00:49:28;29.87;;;18.00;;
76262;SDS011;65080;50.908;6.916;2022-12-07T00:51:56;25.30;;;18.77;;
76262;SDS011;65080;50.908;6.916;2022-12-07T00:54:26;25.03;;;17.23;;
76262;SDS011;65080;50.908;6.916;2022-12-07T00:56:54;28.97;;;17.90;;
76262;SDS011;65080;50.908;6.916;2022-12-07T00:59:22;24.47;;;18.10;;
76262;SDS011;65080;50.908;6.916;2022-12-07T01:01:50;27.87;;;18.87;;
76262;SDS011;65080;50.908;6.916;2022-12-07T01:04:19;25.33;;;19.20;;
76262;SDS011;65080;50.908;6.916;2022-12-07T01:06:49;26.13;;;18.27;;
76262;SDS011;65080;50.908;6.916;2022-12-07T01:09:17;24.10;;;17.63;;
76262;SDS011;65080;50.908;6.916;2022-12-07T01:11:45;25.23;;;17.20;;
76262;SDS011;65080;50.908;6.916;2022-12-07T01:14:14;28.13;;;19.50;;
76262;SDS011;65080;50.908;6.916;2022-12-07T01:16:42;26.17;;;17.90;;
76262;SDS011;65080;50.908;6.916;2022-12-07T01:19:10;29.60;;;17.80;;
76262;SDS011;65080;50.908;6.916;2022-12-07T01:21:38;27.70;;;17.93;;
76262;SDS011;65080;50.908;6.916;2022-12-07T01:24:09;24.57;;;17.97;;
76262;SDS011;65080;50.908;6.916;2022-12-07T01:26:38;24.23;;;19.10;;
76262;SDS011;65080;50.908;6.916;2022-12-07T01:29:06;27.90;;;18.60;;
76262;SDS011;65080;50.908;6.916;2022-12-07T01:31:34;26.87;;;18.73;;
76262;SDS011;65080;50.908;6.916;2022-12-07T01:34:03;27.60;;;18.20;;
76262;SDS011;65080;50.908;6.916;2022-12-07T01:36:31;26.20;;;18.70;;
76262;SDS011;65080;50.908;6.916;2022-12-07T01:39:03;26.40;;;18.30;;
76262;SDS011;65080;50.908;6.916;2022-12-07T01:41:35;23.33;;;18.17;;
76262;SDS011;65080;50.908;6.916;2022-12-07T01:44:08;30.30;;;19.27;;
76262;SDS011;65080;50.908;6.916;2022-12-07T01:46:44;26.83;;;18.20;;
76262;SDS011;65080;50.908;6.916;2022-12-07T01:49:25;26.63;;;18.27;;
76262;SDS011;65080;50.908;6.916;2022-12-07T01:51:58;26.43;;;17.97;;
76262;SDS011;65080;50.908;6.916;2022-12-07T01:54:31;24.60;;;17.27;;
76262;SDS011;65080;50.908;6.916;2022-12-07T01:57:01;25.63;;;18.83;;
76262;SDS011;65080;50.908;6.916;2022-12-07T01:59:32;24.60;;;17.97;;
76262;SDS011;65080;50.908;6.916;2022-12-07T02:02:01;30.00;;;18.97;;
76262;SDS011;65080;50.908;6.916;2022-12-07T02:04:31;24.43;;;18.00;;
76262;SDS011;65080;50.908;6.916;2022-12-07T02:07:00;23.73;;;17.40;;
76262;SDS011;65080;50.908;6.916;2022-12-07T02:09:28;27.67;;;18.00;;
76262;SDS011;65080;50.908;6.916;2022-12-07T02:11:56;29.20;;;18.90;;
76262;SDS011;65080;50.908;6.916;2022-12-07T02:14:26;28.60;;;18.23;;
76262;SDS011;65080;50.908;6.916;2022-12-07T02:16:59;32.33;;;18.90;;
76262;SDS011;65080;50.908;6.916;2022-12-07T02:23:04;28.47;;;17.17;;
76262;SDS011;65080;50.908;6.916;2022-12-07T02:29:03;26.73;;;17.67;;
76262;SDS011;65080;50.908;6.916;2022-12-07T02:31:43;24.73;;;17.57;;
76262;SDS011;65080;50.908;6.916;2022-12-07T02:34:17;27.40;;;16.90;;
76262;SDS011;65080;50.908;6.916;2022-12-07T02:36:52;29.63;;;18.33;;
76262;SDS011;65080;50.908;6.916;2022-12-07T02:39:26;24.67;;;18.33;;
76262;SDS011;65080;50.908;6.916;2022-12-07T02:41:59;24.20;;;17.83;;
76262;SDS011;65080;50.908;6.916;2022-12-07T02:44:32;27.77;;;18.20;;
76262;SDS011;65080;50.908;6.916;2022-12-07T02:47:02;27.37;;;19.00;;
76262;SDS011;65080;50.908;6.916;2022-12-07T02:49:33;25.03;;;18.60;;
76262;SDS011;65080;50.908;6.916;2022-12-07T02:52:03;26.40;;;17.40;;
76262;SDS011;65080;50.908;6.916;2022-12-07T02:54:31;23.77;;;17.73;;
76262;SDS011;65080;50.908;6.916;2022-12-07T02:57:00;27.27;;;17.80;;
76262;SDS011;65080;50.908;6.916;2022-12-07T02:59:39;26.87;;;17.70;;
76262;SDS011;65080;50.908;6.916;2022-12-07T03:02:19;24.73;;;17.90;;
76262;SDS011;65080;50.908;6.916;2022-12-07T03:04:57;27.97;;;18.97;;
76262;SDS011;65080;50.908;6.916;2022-12-07T03:07:39;27.83;;;17.30;;
76262;SDS011;65080;50.908;6.916;2022-12-07T03:10:19;28.07;;;18.10;;
76262;SDS011;65080;50.908;6.916;2022-12-07T03:12:53;31.83;;;18.70;;
76262;SDS011;65080;50.908;6.916;2022-12-07T03:15:34;27.10;;;18.13;;
76262;SDS011;65080;50.908;6.916;2022-12-07T03:18:10;27.00;;;19.30;;
76262;SDS011;65080;50.908;6.916;2022-12-07T03:20:42;27.63;;;19.07;;
76262;SDS011;65080;50.908;6.916;2022-12-07T03:23:16;27.27;;;18.37;;
76262;SDS011;65080;50.908;6.916;2022-12-07T03:25:47;26.23;;;17.77;;
76262;SDS011;65080;50.908;6.916;2022-12-07T03:28:24;25.17;;;18.53;;
76262;SDS011;65080;50.908;6.916;2022-12-07T03:30:57;26.07;;;17.33;;
76262;SDS011;65080;50.908;6.916;2022-12-07T03:33:30;28.83;;;18.03;;
76262;SDS011;65080;50.908;6.916;2022-12-07T03:36:04;26.40;;;18.13;;
76262;SDS011;65080;50.908;6.916;2022-12-07T03:38:36;25.80;;;17.20;;
76262;SDS011;65080;50.908;6.916;2022-12-07T03:41:08;26.83;;;17.40;;
76262;SDS011;65080;50.908;6.916;2022-12-07T03:43:39;29.10;;;19.47;;
76262;SDS011;65080;50.908;6.916;2022-12-07T03:46:17;27.70;;;17.67;;
76262;SDS011;65080;50.908;6.916;2022-12-07T03:48:51;24.87;;;17.40;;
76262;SDS011;65080;50.908;6.916;2022-12-07T03:51:25;25.30;;;17.00;;
76262;SDS011;65080;50.908;6.916;2022-12-07T03:53:59;26.27;;;17.03;;
76262;SDS011;65080;50.908;6.916;2022-12-07T03:56:34;26.07;;;16.60;;
76262;SDS011;65080;50.908;6.916;2022-12-07T03:59:06;25.33;;;17.93;;
76262;SDS011;65080;50.908;6.916;2022-12-07T04:01:36;25.03;;;18.00;;
76262;SDS011;65080;50.908;6.916;2022-12-07T04:04:04;21.83;;;15.43;;
76262;SDS011;65080;50.908;6.916;2022-12-07T04:06:35;26.47;;;16.47;;
76262;SDS011;65080;50.908;6.916;2022-12-07T04:09:03;24.27;;;17.30;;
76262;SDS011;65080;50.908;6.916;2022-12-07T04:11:33;28.07;;;17.50;;
76262;SDS011;65080;50.908;6.916;2022-12-07T04:14:09;26.70;;;18.37;;
76262;SDS011;65080;50.908;6.916;2022-12-07T04:16:50;24.70;;;17.57;;
76262;SDS011;65080;50.908;6.916;2022-12-07T04:19:24;23.73;;;17.50;;
76262;SDS011;65080;50.908;6.916;2022-12-07T04:21:54;26.90;;;17.70;;
76262;SDS011;65080;50.908;6.916;2022-12-07T04:24:28;21.93;;;15.83;;
76262;SDS011;65080;50.908;6.916;2022-12-07T04:26:57;25.03;;;17.30;;
76262;SDS011;65080;50.908;6.916;2022-12-07T04:29:28;29.60;;;18.23;;
76262;SDS011;65080;50.908;6.916;2022-12-07T04:32:00;23.90;;;17.63;;
76262;SDS011;65080;50.908;6.916;2022-12-07T04:34:29;27.10;;;17.50;;
76262;SDS011;65080;50.908;6.916;2022-12-07T04:37:00;28.40;;;17.30;;
76262;SDS011;65080;50.908;6.916;2022-12-07T04:39:31;23.23;;;16.60;;
76262;SDS011;65080;50.908;6.916;2022-12-07T04:42:02;26.73;;;16.93;;
76262;SDS011;65080;50.908;6.916;2022-12-07T04:44:34;24.43;;;16.40;;
76262;SDS011;65080;50.908;6.916;2022-12-07T04:47:04;27.80;;;16.87;;
76262;SDS011;65080;50.908;6.916;2022-12-07T04:49:34;27.57;;;17.03;;
76262;SDS011;65080;50.908;6.916;2022-12-07T04:52:07;23.03;;;17.33;;
76262;SDS011;65080;50.908;6.916;2022-12-07T04:54:37;24.60;;;17.93;;
76262;SDS011;65080;50.908;6.916;2022-12-07T04:57:05;26.70;;;18.87;;
76262;SDS011;65080;50.908;6.916;2022-12-07T04:59:36;23.67;;;17.70;;
76262;SDS011;65080;50.908;6.916;2022-12-07T05:02:12;26.77;;;17.20;;
76262;SDS011;65080;50.908;6.916;2022-12-07T05:04:40;27.77;;;17.63;;
76262;SDS011;65080;50.908;6.916;2022-12-07T05:07:08;25.77;;;15.60;;
76262;SDS011;65080;50.908;6.916;2022-12-07T05:09:39;27.53;;;17.33;;
76262;SDS011;65080;50.908;6.916;2022-12-07T05:12:07;21.83;;;16.30;;
76262;SDS011;65080;50.908;6.916;2022-12-07T05:14:36;25.40;;;18.40;;
76262;SDS011;65080;50.908;6.916;2022-12-07T05:17:04;26.37;;;17.10;;
76262;SDS011;65080;50.908;6.916;2022-12-07T05:19:33;25.60;;;18.07;;
76262;SDS011;65080;50.908;6.916;2022-12-07T05:22:02;28.30;;;17.23;;
76262;SDS011;65080;50.908;6.916;2022-12-07T05:24:33;26.80;;;16.73;;
76262;SDS011;65080;50.908;6.916;2022-12-07T05:27:02;22.93;;;15.93;;
76262;SDS011;65080;50.908;6.916;2022-12-07T05:29:30;24.13;;;17.77;;
76262;SDS011;65080;50.908;6.916;2022-12-07T05:32:01;23.50;;;16.10;;
76262;SDS011;65080;50.908;6.916;2022-12-07T05:34:34;22.80;;;15.33;;
76262;SDS011;65080;50.908;6.916;2022-12-07T05:37:03;23.97;;;16.07;;
76262;SDS011;65080;50.908;6.916;2022-12-07T05:39:31;25.80;;;18.33;;
76262;SDS011;65080;50.908;6.916;2022-12-07T05:41:59;25.40;;;16.80;;
76262;SDS011;65080;50.908;6.916;2022-12-07T05:44:40;23.90;;;17.10;;
76262;SDS011;65080;50.908;6.916;2022-12-07T05:47:09;29.40;;;18.20;;
76262;SDS011;65080;50.908;6.916;2022-12-07T05:49:39;25.50;;;17.03;;
76262;SDS011;65080;50.908;6.916;2022-12-07T05:52:08;21.43;;;16.30;;
76262;SDS011;65080;50.908;6.916;2022-12-07T05:54:36;25.80;;;16.13;;
76262;SDS011;65080;50.908;6.916;2022-12-07T05:57:04;24.93;;;17.60;;
76262;SDS011;65080;50.908;6.916;2022-12-07T05:59:32;23.03;;;16.47;;
76262;SDS011;65080;50.908;6.916;2022-12-07T06:02:01;26.67;;;17.13;;
76262;SDS011;65080;50.908;6.916;2022-12-07T06:04:31;24.07;;;16.87;;
76262;SDS011;65080;50.908;6.916;2022-12-07T06:07:02;23.60;;;16.43;;
76262;SDS011;65080;50.908;6.916;2022-12-07T06:09:31;25.23;;;17.07;;
76262;SDS011;65080;50.908;6.916;2022-12-07T06:12:00;28.67;;;18.83;;
76262;SDS011;65080;50.908;6.916;2022-12-07T06:14:47;27.20;;;16.30;;
76262;SDS011;65080;50.908;6.916;2022-12-07T06:17:15;32.63;;;20.13;;
76262;SDS011;65080;50.908;6.916;2022-12-07T06:19:44;27.00;;;17.90;;
76262;SDS011;65080;50.908;6.916;2022-12-07T06:22:13;27.17;;;18.50;;
76262;SDS011;65080;50.908;6.916;2022-12-07T06:24:43;27.73;;;18.63;;
76262;SDS011;65080;50.908;6.916;2022-12-07T06:27:13;30.67;;;20.10;;
76262;SDS011;65080;50.908;6.916;2022-12-07T06:29:42;30.53;;;18.80;;
76262;SDS011;65080;50.908;6.916;2022-12-07T06:32:10;27.70;;;18.50;;
76262;SDS011;65080;50.908;6.916;2022-12-07T06:34:39;27.30;;;19.40;;
76262;SDS011;65080;50.908;6.916;2022-12-07T06:37:07;30.53;;;19.57;;
76262;SDS011;65080;50.908;6.916;2022-12-07T06:39:36;33.93;;;20.40;;
76262;SDS011;65080;50.908;6.916;2022-12-07T06:42:05;36.37;;;19.87;;
76262;SDS011;65080;50.908;6.916;2022-12-07T06:44:33;29.20;;;19.93;;
76262;SDS011;65080;50.908;6.916;2022-12-07T06:47:02;32.77;;;20.20;;
76262;SDS011;65080;50.908;6.916;2022-12-07T06:49:51;29.80;;;20.40;;
76262;SDS011;65080;50.908;6.916;2022-12-07T06:52:19;30.30;;;19.67;;
76262;SDS011;65080;50.908;6.916;2022-12-07T06:54:48;27.03;;;18.60;;
76262;SDS011;65080;50.908;6.916;2022-12-07T06:57:17;30.77;;;19.70;;
76262;SDS011;65080;50.908;6.916;2022-12-07T06:59:46;28.10;;;18.70;;
76262;SDS011;65080;50.908;6.916;2022-12-07T07:02:14;27.97;;;18.80;;
76262;SDS011;65080;50.908;6.916;2022-12-07T07:04:43;26.93;;;18.67;;
76262;SDS011;65080;50.908;6.916;2022-12-07T07:07:11;27.90;;;18.93;;
76262;SDS011;65080;50.908;6.916;2022-12-07T07:09:39;27.30;;;19.40;;
76262;SDS011;65080;50.908;6.916;2022-12-07T07:12:09;26.97;;;18.40;;
76262;SDS011;65080;50.908;6.916;2022-12-07T07:14:37;31.00;;;18.03;;
76262;SDS011;65080;50.908;6.916;2022-12-07T07:17:05;27.70;;;18.97;;
76262;SDS011;65080;50.908;6.916;2022-12-07T07:19:34;27.67;;;18.93;;
76262;SDS011;65080;50.908;6.916;2022-12-07T07:22:03;26.00;;;17.03;;
76262;SDS011;65080;50.908;6.916;2022-12-07T07:24:31;24.27;;;17.90;;
76262;SDS011;65080;50.908;6.916;2022-12-07T07:26:59;25.90;;;18.23;;
76262;SDS011;65080;50.908;6.916;2022-12-07T07:29:29;25.63;;;17.77;;
76262;SDS011;65080;50.908;6.916;2022-12-07T07:31:57;28.67;;;19.63;;
76262;SDS011;65080;50.908;6.916;2022-12-07T07:34:32;30.23;;;20.83;;
76262;SDS011;65080;50.908;6.916;2022-12-07T07:37:00;25.23;;;18.93;;
76262;SDS011;65080;50.908;6.916;2022-12-07T07:39:28;30.73;;;19.07;;
76262;SDS011;65080;50.908;6.916;2022-12-07T07:41:57;32.30;;;19.90;;
76262;SDS011;65080;50.908;6.916;2022-12-07T07:44:25;28.90;;;18.43;;
76262;SDS011;65080;50.908;6.916;2022-12-07T07:47:01;26.47;;;18.57;;
76262;SDS011;65080;50.908;6.916;2022-12-07T07:49:30;33.90;;;20.67;;
76262;SDS011;65080;50.908;6.916;2022-12-07T07:51:58;27.07;;;19.00;;
76262;SDS011;65080;50.908;6.916;2022-12-07T07:54:26;32.20;;;20.90;;
76262;SDS011;65080;50.908;6.916;2022-12-07T07:56:55;27.90;;;18.50;;
76262;SDS011;65080;50.908;6.916;2022-12-07T07:59:23;28.13;;;18.53;;
76262;SDS011;65080;50.908;6.916;2022-12-07T08:01:52;25.87;;;18.13;;
76262;SDS011;65080;50.908;6.916;2022-12-07T08:04:21;30.07;;;20.30;;
76262;SDS011;65080;50.908;6.916;2022-12-07T08:06:50;27.03;;;17.80;;
76262;SDS011;65080;50.908;6.916;2022-12-07T08:09:18;28.60;;;18.73;;
76262;SDS011;65080;50.908;6.916;2022-12-07T08:11:46;24.27;;;18.60;;
76262;SDS011;65080;50.908;6.916;2022-12-07T08:14:15;30.20;;;18.00;;
76262;SDS011;65080;50.908;6.916;2022-12-07T08:16:43;29.23;;;18.37;;
76262;SDS011;65080;50.908;6.916;2022-12-07T08:19:11;29.13;;;20.40;;
76262;SDS011;65080;50.908;6.916;2022-12-07T08:21:41;28.37;;;17.93;;
76262;SDS011;65080;50.908;6.916;2022-12-07T08:24:09;26.43;;;16.03;;
76262;SDS011;65080;50.908;6.916;2022-12-07T08:26:37;28.67;;;17.43;;
76262;SDS011;65080;50.908;6.916;2022-12-07T08:29:05;26.53;;;16.50;;
76262;SDS011;65080;50.908;6.916;2022-12-07T08:31:34;23.07;;;15.60;;
76262;SDS011;65080;50.908;6.916;2022-12-07T08:34:02;24.03;;;14.97;;
76262;SDS011;65080;50.908;6.916;2022-12-07T08:36:30;22.33;;;14.30;;
76262;SDS011;65080;50.908;6.916;2022-12-07T08:39:00;21.40;;;13.47;;
76262;SDS011;65080;50.908;6.916;2022-12-07T08:41:48;17.40;;;12.50;;
76262;SDS011;65080;50.908;6.916;2022-12-07T08:44:16;22.50;;;13.63;;
76262;SDS011;65080;50.908;6.916;2022-12-07T08:46:45;20.50;;;14.00;;
76262;SDS011;65080;50.908;6.916;2022-12-07T08:49:16;22.90;;;12.30;;
76262;SDS011;65080;50.908;6.916;2022-12-07T08:51:46;19.90;;;13.27;;
76262;SDS011;65080;50.908;6.916;2022-12-07T08:54:17;20.07;;;13.70;;
76262;SDS011;65080;50.908;6.916;2022-12-07T08:56:46;19.50;;;13.27;;
76262;SDS011;65080;50.908;6.916;2022-12-07T08:59:24;21.17;;;12.57;;
76262;SDS011;65080;50.908;6.916;2022-12-07T09:01:54;19.40;;;11.93;;
76262;SDS011;65080;50.908;6.916;2022-12-07T09:04:22;18.00;;;12.43;;
76262;SDS011;65080;50.908;6.916;2022-12-07T09:06:50;20.20;;;11.50;;
76262;SDS011;65080;50.908;6.916;2022-12-07T09:09:20;16.10;;;12.23;;
76262;SDS011;65080;50.908;6.916;2022-12-07T09:11:48;16.77;;;11.70;;
76262;SDS011;65080;50.908;6.916;2022-12-07T09:14:16;18.60;;;12.43;;
76262;SDS011;65080;50.908;6.916;2022-12-07T09:16:45;14.73;;;11.73;;
76262;SDS011;65080;50.908;6.916;2022-12-07T09:19:13;22.37;;;12.80;;
76262;SDS011;65080;50.908;6.916;2022-12-07T09:21:42;22.90;;;11.80;;
76262;SDS011;65080;50.908;6.916;2022-12-07T09:24:11;17.07;;;11.77;;
76262;SDS011;65080;50.908;6.916;2022-12-07T09:26:40;17.93;;;12.40;;
76262;SDS011;65080;50.908;6.916;2022-12-07T09:29:09;17.47;;;11.77;;
76262;SDS011;65080;50.908;6.916;2022-12-07T09:31:37;27.10;;;12.50;;
76262;SDS011;65080;50.908;6.916;2022-12-07T09:34:05;18.37;;;12.70;;
76262;SDS011;65080;50.908;6.916;2022-12-07T09:36:34;17.67;;;12.37;;
76262;SDS011;65080;50.908;6.916;2022-12-07T09:39:02;23.50;;;11.60;;
76262;SDS011;65080;50.908;6.916;2022-12-07T09:41:31;17.43;;;11.47;;
76262;SDS011;65080;50.908;6.916;2022-12-07T09:44:05;18.47;;;11.70;;
76262;SDS011;65080;50.908;6.916;2022-12-07T09:46:34;17.63;;;12.03;;
76262;SDS011;65080;50.908;6.916;2022-12-07T09:49:07;16.77;;;11.50;;
76262;SDS011;65080;50.908;6.916;2022-12-07T09:51:39;17.23;;;12.00;;
76262;SDS011;65080;50.908;6.916;2022-12-07T09:54:07;14.50;;;11.47;;
76262;SDS011;65080;50.908;6.916;2022-12-07T09:56:39;13.70;;;10.53;;
76262;SDS011;65080;50.908;6.916;2022-12-07T09:59:12;19.10;;;10.93;;
76262;SDS011;65080;50.908;6.916;2022-12-07T10:01:45;17.40;;;9.80;;
76262;SDS011;65080;50.908;6.916;2022-12-07T10:04:16;18.23;;;10.33;;
76262;SDS011;65080;50.908;6.916;2022-12-07T10:06:47;17.70;;;10.13;;
76262;SDS011;65080;50.908;6.916;2022-12-07T10:09:18;14.67;;;10.23;;
76262;SDS011;65080;50.908;6.916;2022-12-07T10:12:03;15.40;;;10.07;;
76262;SDS011;65080;50.908;6.916;2022-12-07T10:14:35;16.87;;;9.60;;
76262;SDS011;65080;50.908;6.916;2022-12-07T10:17:30;17.70;;;10.10;;
76262;SDS011;65080;50.908;6.916;2022-12-07T10:20:13;15.30;;;8.50;;
76262;SDS011;65080;50.908;6.916;2022-12-07T10:22:54;20.10;;;9.73;;
76262;SDS011;65080;50.908;6.916;2022-12-07T10:25:25;14.80;;;8.60;;
76262;SDS011;65080;50.908;6.916;2022-12-07T10:28:02;13.90;;;7.73;;
76262;SDS011;65080;50.908;6.916;2022-12-07T10:30:48;12.30;;;7.27;;
76262;SDS011;65080;50.908;6.916;2022-12-07T10:33:28;14.03;;;7.30;;
76262;SDS011;65080;50.908;6.916;2022-12-07T10:35:59;14.17;;;7.30;;
76262;SDS011;65080;50.908;6.916;2022-12-07T10:38:30;12.10;;;8.07;;
76262;SDS011;65080;50.908;6.916;2022-12-07T10:41:07;12.13;;;7.67;;
76262;SDS011;65080;50.908;6.916;2022-12-07T10:43:36;10.63;;;7.63;;
76262;SDS011;65080;50.908;6.916;2022-12-07T10:46:19;16.43;;;7.77;;
76262;SDS011;65080;50.908;6.916;2022-12-07T10:49:03;12.70;;;8.20;;
76262;SDS011;65080;50.908;6.916;2022-12-07T10:51:48;10.93;;;7.73;;
76262;SDS011;65080;50.908;6.916;2022-12-07T10:54:25;13.27;;;7.50;;
76262;SDS011;65080;50.908;6.916;2022-12-07T10:57:05;10.97;;;7.37;;
76262;SDS011;65080;50.908;6.916;2022-12-07T11:00:00;8.43;;;6.10;;
76262;SDS011;65080;50.908;6.916;2022-12-07T11:02:38;10.50;;;6.33;;
76262;SDS011;65080;50.908;6.916;2022-12-07T11:05:27;16.07;;;7.50;;
76262;SDS011;65080;50.908;6.916;2022-12-07T11:08:03;11.27;;;7.27;;
76262;SDS011;65080;50.908;6.916;2022-12-07T11:10:41;15.10;;;6.67;;
76262;SDS011;65080;50.908;6.916;2022-12-07T11:13:22;9.40;;;6.60;;
76262;SDS011;65080;50.908;6.916;2022-12-07T11:16:01;13.63;;;6.93;;
76262;SDS011;65080;50.908;6.916;2022-12-07T11:18:50;12.20;;;5.87;;
76262;SDS011;65080;50.908;6.916;2022-12-07T11:21:27;9.80;;;5.50;;
76262;SDS011;65080;50.908;6.916;2022-12-07T11:24:04;12.23;;;5.10;;
76262;SDS011;65080;50.908;6.916;2022-12-07T11:26:44;8.40;;;5.40;;
76262;SDS011;65080;50.908;6.916;2022-12-07T11:29:34;8.57;;;5.20;;
76262;SDS011;65080;50.908;6.916;2022-12-07T11:32:14;7.30;;;4.70;;
76262;SDS011;65080;50.908;6.916;2022-12-07T11:34:54;11.53;;;5.90;;
76262;SDS011;65080;50.908;6.916;2022-12-07T11:37:32;12.60;;;5.07;;
76262;SDS011;65080;50.908;6.916;2022-12-07T11:40:05;7.80;;;4.47;;
76262;SDS011;65080;50.908;6.916;2022-12-07T11:42:45;12.33;;;4.87;;
76262;SDS011;65080;50.908;6.916;2022-12-07T11:45:19;9.90;;;5.03;;
76262;SDS011;65080;50.908;6.916;2022-12-07T11:47:51;14.90;;;5.70;;
76262;SDS011;65080;50.908;6.916;2022-12-07T11:50:30;10.37;;;4.83;;
76262;SDS011;65080;50.908;6.916;2022-12-07T11:53:03;9.43;;;4.70;;
76262;SDS011;65080;50.908;6.916;2022-12-07T11:55:44;12.93;;;5.57;;
76262;SDS011;65080;50.908;6.916;2022-12-07T11:58:20;11.10;;;4.60;;
76262;SDS011;65080;50.908;6.916;2022-12-07T12:01:08;13.53;;;6.97;;
76262;SDS011;65080;50.908;6.916;2022-12-07T12:03:43;14.43;;;5.40;;
76262;SDS011;65080;50.908;6.916;2022-12-07T12:06:20;13.83;;;6.17;;
76262;SDS011;65080;50.908;6.916;2022-12-07T12:08:50;9.90;;;5.83;;
76262;SDS011;65080;50.908;6.916;2022-12-07T12:11:59;11.00;;;6.90;;
76262;SDS011;65080;50.908;6.916;2022-12-07T12:15:13;12.10;;;6.50;;
76262;SDS011;65080;50.908;6.916;2022-12-07T12:18:08;11.43;;;6.57;;
76262;SDS011;65080;50.908;6.916;2022-12-07T12:20:57;10.77;;;6.80;;
76262;SDS011;65080;50.908;6.916;2022-12-07T12:23:35;9.73;;;5.83;;
76262;SDS011;65080;50.908;6.916;2022-12-07T12:26:07;11.40;;;6.40;;
76262;SDS011;65080;50.908;6.916;2022-12-07T12:28:49;9.83;;;6.60;;
76262;SDS011;65080;50.908;6.916;2022-12-07T12:31:31;16.33;;;7.40;;
76262;SDS011;65080;50.908;6.916;2022-12-07T12:34:04;14.50;;;8.00;;
76262;SDS011;65080;50.908;6.916;2022-12-07T12:36:57;13.43;;;7.93;;
76262;SDS011;65080;50.908;6.916;2022-12-07T12:39:27;11.90;;;7.53;;
76262;SDS011;65080;50.908;6.916;2022-12-07T12:41:57;13.90;;;7.67;;
76262;SDS011;65080;50.908;6.916;2022-12-07T12:50:27;18.43;;;8.20;;
76262;SDS011;65080;50.908;6.916;2022-12-07T13:01:54;11.20;;;6.60;;
76262;SDS011;65080;50.908;6.916;2022-12-07T13:04:34;13.17;;;8.37;;
76262;SDS011;65080;50.908;6.916;2022-12-07T13:10:30;14.60;;;7.90;;
76262;SDS011;65080;50.908;6.916;2022-12-07T13:25:09;13.30;;;7.10;;
76262;SDS011;65080;50.908;6.916;2022-12-07T13:27:41;12.77;;;7.67;;
76262;SDS011;65080;50.908;6.916;2022-12-07T13:30:16;12.03;;;8.00;;
76262;SDS011;65080;50.908;6.916;2022-12-07T13:32:51;13.63;;;7.87;;
76262;SDS011;65080;50.908;6.916;2022-12-07T13:35:27;15.20;;;8.83;;
76262;SDS011;65080;50.908;6.916;2022-12-07T13:37:57;9.50;;;6.60;;
76262;SDS011;65080;50.908;6.916;2022-12-07T13:40:25;12.83;;;6.50;;
76262;SDS011;65080;50.908;6.916;2022-12-07T13:42:57;10.90;;;6.57;;
76262;SDS011;65080;50.908;6.916;2022-12-07T13:45:28;10.53;;;5.77;;
76262;SDS011;65080;50.908;6.916;2022-12-07T13:48:19;8.20;;;5.10;;
76262;SDS011;65080;50.908;6.916;2022-12-07T13:50:52;10.63;;;5.33;;
76262;SDS011;65080;50.908;6.916;2022-12-07T13:53:22;9.83;;;5.70;;
76262;SDS011;65080;50.908;6.916;2022-12-07T13:55:51;9.00;;;5.80;;
76262;SDS011;65080;50.908;6.916;2022-12-07T13:58:20;14.80;;;6.10;;
76262;SDS011;65080;50.908;6.916;2022-12-07T14:00:51;8.37;;;6.10;;
76262;SDS011;65080;50.908;6.916;2022-12-07T14:03:29;9.47;;;5.90;;
76262;SDS011;65080;50.908;6.916;2022-12-07T14:06:05;13.30;;;6.37;;
76262;SDS011;65080;50.908;6.916;2022-12-07T14:08:45;10.70;;;6.07;;
76262;SDS011;65080;50.908;6.916;2022-12-07T14:11:15;11.00;;;5.40;;
76262;SDS011;65080;50.908;6.916;2022-12-07T14:13:56;9.83;;;6.10;;
76262;SDS011;65080;50.908;6.916;2022-12-07T14:16:30;12.93;;;6.97;;
76262;SDS011;65080;50.908;6.916;2022-12-07T14:19:00;10.83;;;5.70;;
76262;SDS011;65080;50.908;6.916;2022-12-07T14:21:32;11.97;;;6.70;;
76262;SDS011;65080;50.908;6.916;2022-12-07T14:24:09;9.67;;;7.30;;
76262;SDS011;65080;50.908;6.916;2022-12-07T14:26:44;11.63;;;6.60;;
76262;SDS011;65080;50.908;6.916;2022-12-07T14:29:21;13.97;;;7.77;;
76262;SDS011;65080;50.908;6.916;2022-12-07T14:31:57;12.67;;;7.77;;
76262;SDS011;65080;50.908;6.916;2022-12-07T14:34:35;16.40;;;7.50;;
76262;SDS011;65080;50.908;6.916;2022-12-07T14:37:03;13.50;;;8.43;;
76262;SDS011;65080;50.908;6.916;2022-12-07T14:39:34;16.60;;;7.50;;
76262;SDS011;65080;50.908;6.916;2022-12-07T14:42:02;13.20;;;8.70;;
76262;SDS011;65080;50.908;6.916;2022-12-07T14:44:31;11.83;;;7.57;;
76262;SDS011;65080;50.908;6.916;2022-12-07T14:47:02;15.40;;;9.63;;
76262;SDS011;65080;50.908;6.916;2022-12-07T14:49:51;15.80;;;8.70;;
76262;SDS011;65080;50.908;6.916;2022-12-07T14:52:20;11.90;;;7.77;;
76262;SDS011;65080;50.908;6.916;2022-12-07T14:55:14;15.37;;;8.27;;
76262;SDS011;65080;50.908;6.916;2022-12-07T14:57:47;12.13;;;8.60;;
76262;SDS011;65080;50.908;6.916;2022-12-07T15:00:16;11.40;;;8.30;;
76262;SDS011;65080;50.908;6.916;2022-12-07T15:02:47;16.63;;;11.07;;
76262;SDS011;65080;50.908;6.916;2022-12-07T15:05:16;10.93;;;7.80;;
76262;SDS011;65080;50.908;6.916;2022-12-07T15:07:46;13.07;;;8.60;;
76262;SDS011;65080;50.908;6.916;2022-12-07T15:10:17;15.43;;;9.47;;
76262;SDS011;65080;50.908;6.916;2022-12-07T15:12:50;13.87;;;10.60;;
76262;SDS011;65080;50.908;6.916;2022-12-07T15:15:18;15.97;;;10.87;;
76262;SDS011;65080;50.908;6.916;2022-12-07T15:17:48;17.67;;;11.37;;
76262;SDS011;65080;50.908;6.916;2022-12-07T15:20:16;15.33;;;11.80;;
76262;SDS011;65080;50.908;6.916;2022-12-07T15:22:44;18.33;;;12.10;;
76262;SDS011;65080;50.908;6.916;2022-12-07T15:25:13;14.67;;;10.60;;
76262;SDS011;65080;50.908;6.916;2022-12-07T15:27:41;14.07;;;10.40;;
76262;SDS011;65080;50.908;6.916;2022-12-07T15:30:10;25.20;;;10.43;;
76262;SDS011;65080;50.908;6.916;2022-12-07T15:32:38;14.83;;;9.50;;
76262;SDS011;65080;50.908;6.916;2022-12-07T15:35:08;13.90;;;10.13;;